Main page
METAR-TAF:

METAR-TAF

Airports :

Cairns, Australia

Cairns Airport

latitude: 16-53S, longitude: 145-45E, elevation: 3 m

Current weather observation

The report was made 22 minutes ago, at 00:00 UTC
Wind 8 kt from the Southeast
Temperature 26°C
Humidity 65%
Pressure 1017 hPa
Visibility 10 km or more
Few clouds at a height of 2300 ft
Scattered clouds at a height of 3000 ft

METAR: YBCS 200000Z 13008KT 9999 FEW023 SCT030 26/19 Q1017 NOSIG

Time: 10:22 (00:22 UTC)

Forecast

The report was made 1 hour and 7 minutes ago, at 23:15 UTC
Forecast valid from 20 at 00 UTC to 20 at 24 UTC
Wind 12 kt from the Southeast
Visibility 10 km or more
Few clouds at a height of 2500 ft
Scattered clouds at a height of 6000 ft
From 20 at 0800 UTC
Wind 8 kt from the South/Southeast
Visibility 10 km or more
Few clouds at a height of 2500 ft

TAF: YBCS 192315Z 2000/2024 13012KT 9999 FEW025 SCT060 FM200800 16008KT 9999 FEW025

Weather observations and forecasts of more than 4000 airports (METAR and TAF reports).

The available stations are represented by yellow and red dots on the map.

Hover mouse over dot to see the name of the station.

Then click to see weather observations and forecasts.

To change the map : click on the green buttons with a black cross to zoom in, on the green button with a dash to zoom out, or on the green arrows for adjacent maps.


METAR-TAF: